sensor_id;sensor_type;location;lat;lon;timestamp;temperature;humidity
2763;DHT22;1389;51.490;7.338;2023-03-05T00:01:29;6.00;77.40
2763;DHT22;1389;51.490;7.338;2023-03-05T00:03:56;6.00;77.40
2763;DHT22;1389;51.490;7.338;2023-03-05T00:06:26;6.00;77.30
2763;DHT22;1389;51.490;7.338;2023-03-05T00:08:52;6.00;77.50
2763;DHT22;1389;51.490;7.338;2023-03-05T00:11:21;6.00;77.80
2763;DHT22;1389;51.490;7.338;2023-03-05T00:13:51;5.90;77.80
2763;DHT22;1389;51.490;7.338;2023-03-05T00:16:18;5.90;78.30
2763;DHT22;1389;51.490;7.338;2023-03-05T00:18:48;5.90;78.70
2763;DHT22;1389;51.490;7.338;2023-03-05T00:21:28;5.90;78.70
2763;DHT22;1389;51.490;7.338;2023-03-05T00:23:59;5.90;79.30
2763;DHT22;1389;51.490;7.338;2023-03-05T00:26:28;5.90;79.30
2763;DHT22;1389;51.490;7.338;2023-03-05T00:28:56;5.90;79.80
2763;DHT22;1389;51.490;7.338;2023-03-05T00:31:31;5.80;80.30
2763;DHT22;1389;51.490;7.338;2023-03-05T00:34:23;5.80;80.40
2763;DHT22;1389;51.490;7.338;2023-03-05T00:36:54;5.80;80.70
2763;DHT22;1389;51.490;7.338;2023-03-05T00:40:07;5.70;81.00
2763;DHT22;1389;51.490;7.338;2023-03-05T00:42:48;5.80;81.40
2763;DHT22;1389;51.490;7.338;2023-03-05T00:45:16;5.80;81.60
2763;DHT22;1389;51.490;7.338;2023-03-05T00:47:44;5.80;81.60
2763;DHT22;1389;51.490;7.338;2023-03-05T00:50:10;5.80;81.70
2763;DHT22;1389;51.490;7.338;2023-03-05T00:52:36;5.80;81.90
2763;DHT22;1389;51.490;7.338;2023-03-05T00:55:02;5.80;82.20
2763;DHT22;1389;51.490;7.338;2023-03-05T00:57:30;5.90;82.20
2763;DHT22;1389;51.490;7.338;2023-03-05T00:59:56;5.70;83.00
2763;DHT22;1389;51.490;7.338;2023-03-05T01:02:23;5.70;83.20
2763;DHT22;1389;51.490;7.338;2023-03-05T01:07:17;5.70;83.60
2763;DHT22;1389;51.490;7.338;2023-03-05T01:09:44;5.60;83.80
2763;DHT22;1389;51.490;7.338;2023-03-05T01:12:11;5.60;83.90
2763;DHT22;1389;51.490;7.338;2023-03-05T01:14:38;5.60;84.10
2763;DHT22;1389;51.490;7.338;2023-03-05T01:17:07;5.60;84.10
2763;DHT22;1389;51.490;7.338;2023-03-05T01:19:35;5.60;83.90
2763;DHT22;1389;51.490;7.338;2023-03-05T01:22:03;5.60;84.00
2763;DHT22;1389;51.490;7.338;2023-03-05T01:24:30;5.60;84.10
2763;DHT22;1389;51.490;7.338;2023-03-05T01:26:57;5.60;84.00
2763;DHT22;1389;51.490;7.338;2023-03-05T01:29:25;5.60;84.10
2763;DHT22;1389;51.490;7.338;2023-03-05T01:31:53;5.60;84.10
2763;DHT22;1389;51.490;7.338;2023-03-05T01:34:20;5.60;84.10
2763;DHT22;1389;51.490;7.338;2023-03-05T01:36:47;5.60;84.10
2763;DHT22;1389;51.490;7.338;2023-03-05T01:39:16;5.60;84.30
2763;DHT22;1389;51.490;7.338;2023-03-05T01:41:44;5.60;84.10
2763;DHT22;1389;51.490;7.338;2023-03-05T01:44:24;5.60;84.20
2763;DHT22;1389;51.490;7.338;2023-03-05T01:46:51;5.60;84.30
2763;DHT22;1389;51.490;7.338;2023-03-05T01:52:14;5.50;84.60
2763;DHT22;1389;51.490;7.338;2023-03-05T01:54:55;5.50;84.80
2763;DHT22;1389;51.490;7.338;2023-03-05T01:57:27;5.40;85.20
2763;DHT22;1389;51.490;7.338;2023-03-05T01:59:58;5.30;85.30
2763;DHT22;1389;51.490;7.338;2023-03-05T02:02:26;5.30;85.50
2763;DHT22;1389;51.490;7.338;2023-03-05T02:05:04;5.40;85.50
2763;DHT22;1389;51.490;7.338;2023-03-05T02:07:33;5.30;85.70
2763;DHT22;1389;51.490;7.338;2023-03-05T02:10:24;5.30;85.70
2763;DHT22;1389;51.490;7.338;2023-03-05T02:12:59;5.40;85.70
2763;DHT22;1389;51.490;7.338;2023-03-05T02:15:28;5.30;85.80
2763;DHT22;1389;51.490;7.338;2023-03-05T02:17:56;5.30;85.80
2763;DHT22;1389;51.490;7.338;2023-03-05T02:20:25;5.30;85.70
2763;DHT22;1389;51.490;7.338;2023-03-05T02:22:52;5.30;85.90
2763;DHT22;1389;51.490;7.338;2023-03-05T02:25:21;5.30;86.00
2763;DHT22;1389;51.490;7.338;2023-03-05T02:28:00;5.30;86.20
2763;DHT22;1389;51.490;7.338;2023-03-05T02:30:28;5.30;86.00
2763;DHT22;1389;51.490;7.338;2023-03-05T02:32:59;5.30;86.00
2763;DHT22;1389;51.490;7.338;2023-03-05T02:35:26;5.20;86.00
2763;DHT22;1389;51.490;7.338;2023-03-05T02:37:54;5.20;86.00
2763;DHT22;1389;51.490;7.338;2023-03-05T02:40:22;5.20;86.10
2763;DHT22;1389;51.490;7.338;2023-03-05T02:42:49;5.20;86.10
2763;DHT22;1389;51.490;7.338;2023-03-05T02:45:16;5.20;86.10
2763;DHT22;1389;51.490;7.338;2023-03-05T02:47:43;5.20;86.00
2763;DHT22;1389;51.490;7.338;2023-03-05T02:50:11;5.20;85.90
2763;DHT22;1389;51.490;7.338;2023-03-05T02:52:42;5.20;86.00
2763;DHT22;1389;51.490;7.338;2023-03-05T02:55:09;5.20;85.90
2763;DHT22;1389;51.490;7.338;2023-03-05T02:57:36;5.20;85.70
2763;DHT22;1389;51.490;7.338;2023-03-05T03:00:05;5.30;85.60
2763;DHT22;1389;51.490;7.338;2023-03-05T03:02:32;5.20;85.50
2763;DHT22;1389;51.490;7.338;2023-03-05T03:04:58;5.20;85.50
2763;DHT22;1389;51.490;7.338;2023-03-05T03:07:25;5.20;85.30
2763;DHT22;1389;51.490;7.338;2023-03-05T03:09:52;5.10;85.30
2763;DHT22;1389;51.490;7.338;2023-03-05T03:12:24;5.10;85.40
2763;DHT22;1389;51.490;7.338;2023-03-05T03:14:50;5.10;85.70
2763;DHT22;1389;51.490;7.338;2023-03-05T03:17:18;5.10;85.60
2763;DHT22;1389;51.490;7.338;2023-03-05T03:19:44;5.20;85.40
2763;DHT22;1389;51.490;7.338;2023-03-05T03:22:13;5.10;85.20
2763;DHT22;1389;51.490;7.338;2023-03-05T03:24:40;5.10;85.30
2763;DHT22;1389;51.490;7.338;2023-03-05T03:27:07;5.00;85.70
2763;DHT22;1389;51.490;7.338;2023-03-05T03:29:33;5.00;85.70
2763;DHT22;1389;51.490;7.338;2023-03-05T03:32:00;5.10;85.80
2763;DHT22;1389;51.490;7.338;2023-03-05T03:34:26;5.10;85.60
2763;DHT22;1389;51.490;7.338;2023-03-05T03:36:53;5.10;85.50
2763;DHT22;1389;51.490;7.338;2023-03-05T03:39:19;5.10;85.60
2763;DHT22;1389;51.490;7.338;2023-03-05T03:41:48;5.10;85.70
2763;DHT22;1389;51.490;7.338;2023-03-05T03:44:15;5.10;85.70
2763;DHT22;1389;51.490;7.338;2023-03-05T03:46:43;5.00;85.80
2763;DHT22;1389;51.490;7.338;2023-03-05T03:49:16;5.00;85.90
2763;DHT22;1389;51.490;7.338;2023-03-05T03:51:42;4.90;86.50
2763;DHT22;1389;51.490;7.338;2023-03-05T03:54:09;4.90;86.90
2763;DHT22;1389;51.490;7.338;2023-03-05T03:56:36;4.90;87.30
2763;DHT22;1389;51.490;7.338;2023-03-05T03:59:02;4.90;87.40
2763;DHT22;1389;51.490;7.338;2023-03-05T04:01:30;4.90;87.50
2763;DHT22;1389;51.490;7.338;2023-03-05T04:03:57;5.00;87.50
2763;DHT22;1389;51.490;7.338;2023-03-05T04:06:23;4.90;87.60
2763;DHT22;1389;51.490;7.338;2023-03-05T04:08:50;4.90;87.50
2763;DHT22;1389;51.490;7.338;2023-03-05T04:11:16;5.00;87.60
2763;DHT22;1389;51.490;7.338;2023-03-05T04:13:45;5.00;87.60
2763;DHT22;1389;51.490;7.338;2023-03-05T04:16:12;5.00;87.60
2763;DHT22;1389;51.490;7.338;2023-03-05T04:18:42;5.00;87.40
2763;DHT22;1389;51.490;7.338;2023-03-05T04:21:10;5.00;87.40
2763;DHT22;1389;51.490;7.338;2023-03-05T04:23:39;4.90;87.60
2763;DHT22;1389;51.490;7.338;2023-03-05T04:26:05;4.90;87.80
2763;DHT22;1389;51.490;7.338;2023-03-05T04:28:34;4.90;87.80
2763;DHT22;1389;51.490;7.338;2023-03-05T04:31:02;4.90;87.80
2763;DHT22;1389;51.490;7.338;2023-03-05T04:33:31;4.90;87.90
2763;DHT22;1389;51.490;7.338;2023-03-05T04:35:59;4.90;87.90
2763;DHT22;1389;51.490;7.338;2023-03-05T04:38:25;4.90;87.70
2763;DHT22;1389;51.490;7.338;2023-03-05T04:40:51;4.90;87.70
2763;DHT22;1389;51.490;7.338;2023-03-05T04:43:17;4.90;87.90
2763;DHT22;1389;51.490;7.338;2023-03-05T04:45:43;5.00;87.60
2763;DHT22;1389;51.490;7.338;2023-03-05T04:48:10;4.90;87.50
2763;DHT22;1389;51.490;7.338;2023-03-05T04:50:37;4.90;87.50
2763;DHT22;1389;51.490;7.338;2023-03-05T04:53:03;4.90;87.50
2763;DHT22;1389;51.490;7.338;2023-03-05T04:55:30;4.90;87.50
2763;DHT22;1389;51.490;7.338;2023-03-05T04:57:56;4.80;87.90
2763;DHT22;1389;51.490;7.338;2023-03-05T05:00:22;4.80;88.00
2763;DHT22;1389;51.490;7.338;2023-03-05T05:02:50;4.80;88.10
2763;DHT22;1389;51.490;7.338;2023-03-05T05:05:19;4.80;88.10
2763;DHT22;1389;51.490;7.338;2023-03-05T05:07:46;4.80;88.20
2763;DHT22;1389;51.490;7.338;2023-03-05T05:10:13;4.90;87.90
2763;DHT22;1389;51.490;7.338;2023-03-05T05:12:39;4.80;88.00
2763;DHT22;1389;51.490;7.338;2023-03-05T05:15:06;4.80;88.00
2763;DHT22;1389;51.490;7.338;2023-03-05T05:17:33;4.80;88.00
2763;DHT22;1389;51.490;7.338;2023-03-05T05:20:00;4.80;88.00
2763;DHT22;1389;51.490;7.338;2023-03-05T05:22:27;4.80;88.10
2763;DHT22;1389;51.490;7.338;2023-03-05T05:24:54;4.90;88.10
2763;DHT22;1389;51.490;7.338;2023-03-05T05:27:20;4.90;87.90
2763;DHT22;1389;51.490;7.338;2023-03-05T05:29:47;4.80;87.90
2763;DHT22;1389;51.490;7.338;2023-03-05T05:32:17;4.80;88.00
2763;DHT22;1389;51.490;7.338;2023-03-05T05:34:43;4.80;88.00
2763;DHT22;1389;51.490;7.338;2023-03-05T05:37:10;4.80;87.90
2763;DHT22;1389;51.490;7.338;2023-03-05T05:39:37;4.80;87.90
2763;DHT22;1389;51.490;7.338;2023-03-05T05:42:04;4.80;87.80
2763;DHT22;1389;51.490;7.338;2023-03-05T05:44:31;4.80;87.60
2763;DHT22;1389;51.490;7.338;2023-03-05T05:47:09;4.80;87.60
2763;DHT22;1389;51.490;7.338;2023-03-05T05:49:35;4.80;87.60
2763;DHT22;1389;51.490;7.338;2023-03-05T05:52:01;4.80;87.70
2763;DHT22;1389;51.490;7.338;2023-03-05T05:54:29;4.70;87.80
2763;DHT22;1389;51.490;7.338;2023-03-05T05:56:55;4.70;87.70
2763;DHT22;1389;51.490;7.338;2023-03-05T05:59:21;4.70;88.00
2763;DHT22;1389;51.490;7.338;2023-03-05T06:01:52;4.60;87.90
2763;DHT22;1389;51.490;7.338;2023-03-05T06:04:20;4.70;88.00
2763;DHT22;1389;51.490;7.338;2023-03-05T06:06:49;4.60;88.00
2763;DHT22;1389;51.490;7.338;2023-03-05T06:09:16;4.60;88.00
2763;DHT22;1389;51.490;7.338;2023-03-05T06:11:44;4.70;87.90
2763;DHT22;1389;51.490;7.338;2023-03-05T06:14:20;4.70;88.00
2763;DHT22;1389;51.490;7.338;2023-03-05T06:16:46;4.70;88.00
2763;DHT22;1389;51.490;7.338;2023-03-05T06:19:17;4.70;88.20
2763;DHT22;1389;51.490;7.338;2023-03-05T06:21:56;4.60;88.60
2763;DHT22;1389;51.490;7.338;2023-03-05T06:24:27;4.60;88.60
2763;DHT22;1389;51.490;7.338;2023-03-05T06:26:54;4.70;88.60
2763;DHT22;1389;51.490;7.338;2023-03-05T06:32:00;4.70;88.60
2763;DHT22;1389;51.490;7.338;2023-03-05T06:34:32;4.70;88.90
2763;DHT22;1389;51.490;7.338;2023-03-05T06:39:29;4.70;89.10
2763;DHT22;1389;51.490;7.338;2023-03-05T06:42:00;4.70;89.50
2763;DHT22;1389;51.490;7.338;2023-03-05T06:44:41;4.70;89.50
2763;DHT22;1389;51.490;7.338;2023-03-05T06:49:42;4.50;89.50
2763;DHT22;1389;51.490;7.338;2023-03-05T06:52:47;4.40;89.90
2763;DHT22;1389;51.490;7.338;2023-03-05T06:55:35;4.30;90.60
2763;DHT22;1389;51.490;7.338;2023-03-05T06:58:22;4.30;91.30
2763;DHT22;1389;51.490;7.338;2023-03-05T07:00:58;4.40;91.50
2763;DHT22;1389;51.490;7.338;2023-03-05T07:03:58;4.40;91.70
2763;DHT22;1389;51.490;7.338;2023-03-05T07:06:47;4.40;91.70
2763;DHT22;1389;51.490;7.338;2023-03-05T07:09:15;4.40;91.70
2763;DHT22;1389;51.490;7.338;2023-03-05T07:11:45;4.40;92.00
2763;DHT22;1389;51.490;7.338;2023-03-05T07:14:11;4.40;91.90
2763;DHT22;1389;51.490;7.338;2023-03-05T07:16:42;4.40;91.60
2763;DHT22;1389;51.490;7.338;2023-03-05T07:22:09;4.50;91.90
2763;DHT22;1389;51.490;7.338;2023-03-05T07:30:35;4.50;92.10
2763;DHT22;1389;51.490;7.338;2023-03-05T07:33:27;4.60;92.30
2763;DHT22;1389;51.490;7.338;2023-03-05T07:39:05;4.60;91.90
2763;DHT22;1389;51.490;7.338;2023-03-05T07:41:54;4.60;91.80
2763;DHT22;1389;51.490;7.338;2023-03-05T07:47:11;4.70;92.20
2763;DHT22;1389;51.490;7.338;2023-03-05T07:55:15;4.80;91.30
2763;DHT22;1389;51.490;7.338;2023-03-05T08:00:18;4.70;91.60
2763;DHT22;1389;51.490;7.338;2023-03-05T08:03:01;4.60;91.90
2763;DHT22;1389;51.490;7.338;2023-03-05T08:08:19;4.60;92.60
2763;DHT22;1389;51.490;7.338;2023-03-05T08:10:50;4.60;92.60
2763;DHT22;1389;51.490;7.338;2023-03-05T08:13:26;4.60;92.50
2763;DHT22;1389;51.490;7.338;2023-03-05T08:15:53;4.60;92.60
2763;DHT22;1389;51.490;7.338;2023-03-05T08:18:26;4.60;92.30
2763;DHT22;1389;51.490;7.338;2023-03-05T08:21:01;4.60;92.50
2763;DHT22;1389;51.490;7.338;2023-03-05T08:23:33;4.70;92.30
2763;DHT22;1389;51.490;7.338;2023-03-05T08:26:13;4.70;92.30
2763;DHT22;1389;51.490;7.338;2023-03-05T08:28:58;4.80;92.60
2763;DHT22;1389;51.490;7.338;2023-03-05T08:31:28;4.90;92.50
2763;DHT22;1389;51.490;7.338;2023-03-05T08:34:12;5.00;92.70
2763;DHT22;1389;51.490;7.338;2023-03-05T08:36:46;5.00;92.80
2763;DHT22;1389;51.490;7.338;2023-03-05T08:39:28;5.10;92.80
2763;DHT22;1389;51.490;7.338;2023-03-05T08:42:08;5.10;92.60
2763;DHT22;1389;51.490;7.338;2023-03-05T08:44:42;5.10;92.10
2763;DHT22;1389;51.490;7.338;2023-03-05T08:47:14;5.10;92.00
2763;DHT22;1389;51.490;7.338;2023-03-05T08:50:10;5.10;91.70
2763;DHT22;1389;51.490;7.338;2023-03-05T08:52:49;5.00;91.60
2763;DHT22;1389;51.490;7.338;2023-03-05T08:55:20;5.00;92.00
2763;DHT22;1389;51.490;7.338;2023-03-05T08:57:55;5.00;91.60
2763;DHT22;1389;51.490;7.338;2023-03-05T09:00:29;5.00;91.90
2763;DHT22;1389;51.490;7.338;2023-03-05T09:02:57;5.00;91.90
2763;DHT22;1389;51.490;7.338;2023-03-05T09:05:28;4.90;91.80
2763;DHT22;1389;51.490;7.338;2023-03-05T09:08:28;5.00;92.00
2763;DHT22;1389;51.490;7.338;2023-03-05T09:11:09;4.90;91.70
2763;DHT22;1389;51.490;7.338;2023-03-05T09:14:18;4.90;92.00
2763;DHT22;1389;51.490;7.338;2023-03-05T09:16:50;5.00;91.70
2763;DHT22;1389;51.490;7.338;2023-03-05T09:19:17;5.00;91.60
2763;DHT22;1389;51.490;7.338;2023-03-05T09:21:44;4.90;91.60
2763;DHT22;1389;51.490;7.338;2023-03-05T09:24:19;4.90;91.40
2763;DHT22;1389;51.490;7.338;2023-03-05T09:29:29;4.90;92.30
2763;DHT22;1389;51.490;7.338;2023-03-05T09:32:00;4.90;91.80
2763;DHT22;1389;51.490;7.338;2023-03-05T09:34:35;4.90;92.20
2763;DHT22;1389;51.490;7.338;2023-03-05T09:37:07;5.00;92.70
2763;DHT22;1389;51.490;7.338;2023-03-05T09:39:35;5.00;92.70
2763;DHT22;1389;51.490;7.338;2023-03-05T09:47:44;5.00;92.00
2763;DHT22;1389;51.490;7.338;2023-03-05T09:50:39;5.00;91.70
2763;DHT22;1389;51.490;7.338;2023-03-05T09:53:30;5.00;91.50
2763;DHT22;1389;51.490;7.338;2023-03-05T09:56:10;4.90;91.80
2763;DHT22;1389;51.490;7.338;2023-03-05T09:58:40;4.90;91.60
2763;DHT22;1389;51.490;7.338;2023-03-05T10:01:20;4.80;91.80
2763;DHT22;1389;51.490;7.338;2023-03-05T10:06:54;4.90;92.40
2763;DHT22;1389;51.490;7.338;2023-03-05T10:14:48;5.10;92.90
2763;DHT22;1389;51.490;7.338;2023-03-05T10:28:39;5.30;92.30
2763;DHT22;1389;51.490;7.338;2023-03-05T10:34:11;5.30;92.60
2763;DHT22;1389;51.490;7.338;2023-03-05T10:44:59;5.30;92.30
2763;DHT22;1389;51.490;7.338;2023-03-05T10:47:35;5.30;92.20
2763;DHT22;1389;51.490;7.338;2023-03-05T10:50:18;5.40;92.20
2763;DHT22;1389;51.490;7.338;2023-03-05T10:52:46;5.40;92.10
2763;DHT22;1389;51.490;7.338;2023-03-05T10:55:19;5.40;92.10
2763;DHT22;1389;51.490;7.338;2023-03-05T10:57:47;5.40;91.90
2763;DHT22;1389;51.490;7.338;2023-03-05T11:00:21;5.40;91.80
2763;DHT22;1389;51.490;7.338;2023-03-05T11:03:03;5.40;92.10
2763;DHT22;1389;51.490;7.338;2023-03-05T11:11:15;5.50;91.60
2763;DHT22;1389;51.490;7.338;2023-03-05T11:13:57;5.60;91.50
2763;DHT22;1389;51.490;7.338;2023-03-05T11:16:29;5.60;91.50
2763;DHT22;1389;51.490;7.338;2023-03-05T11:19:32;5.60;91.10
2763;DHT22;1389;51.490;7.338;2023-03-05T11:24:39;5.60;91.20
2763;DHT22;1389;51.490;7.338;2023-03-05T11:27:37;5.60;91.40
2763;DHT22;1389;51.490;7.338;2023-03-05T11:30:26;5.70;91.20
2763;DHT22;1389;51.490;7.338;2023-03-05T11:35:34;5.80;90.40
2763;DHT22;1389;51.490;7.338;2023-03-05T11:38:13;5.90;90.20
2763;DHT22;1389;51.490;7.338;2023-03-05T11:40:40;5.90;89.50
2763;DHT22;1389;51.490;7.338;2023-03-05T11:43:13;5.90;88.90
2763;DHT22;1389;51.490;7.338;2023-03-05T11:48:19;6.00;87.80
2763;DHT22;1389;51.490;7.338;2023-03-05T11:50:50;6.00;87.70
2763;DHT22;1389;51.490;7.338;2023-03-05T11:53:46;6.00;87.00
2763;DHT22;1389;51.490;7.338;2023-03-05T11:56:26;6.00;86.50
2763;DHT22;1389;51.490;7.338;2023-03-05T12:01:57;6.10;86.50
2763;DHT22;1389;51.490;7.338;2023-03-05T12:04:23;6.10;86.70
2763;DHT22;1389;51.490;7.338;2023-03-05T12:07:00;6.20;86.50
2763;DHT22;1389;51.490;7.338;2023-03-05T12:09:41;6.20;86.90
2763;DHT22;1389;51.490;7.338;2023-03-05T12:14:50;6.40;85.90
2763;DHT22;1389;51.490;7.338;2023-03-05T12:17:30;6.40;85.30
2763;DHT22;1389;51.490;7.338;2023-03-05T12:20:12;6.30;84.30
2763;DHT22;1389;51.490;7.338;2023-03-05T12:22:41;6.30;84.40
2763;DHT22;1389;51.490;7.338;2023-03-05T12:28:15;6.10;85.40
2763;DHT22;1389;51.490;7.338;2023-03-05T12:33:39;6.10;86.70
2763;DHT22;1389;51.490;7.338;2023-03-05T12:36:32;6.10;86.50
2763;DHT22;1389;51.490;7.338;2023-03-05T12:39:01;6.10;86.50
2763;DHT22;1389;51.490;7.338;2023-03-05T12:41:47;6.10;87.00
2763;DHT22;1389;51.490;7.338;2023-03-05T12:44:18;6.20;87.20
2763;DHT22;1389;51.490;7.338;2023-03-05T12:49:38;6.30;86.00
2763;DHT22;1389;51.490;7.338;2023-03-05T12:52:21;6.20;85.30
2763;DHT22;1389;51.490;7.338;2023-03-05T12:57:47;6.20;85.40
2763;DHT22;1389;51.490;7.338;2023-03-05T13:00:28;6.20;85.50
2763;DHT22;1389;51.490;7.338;2023-03-05T13:03:03;6.20;85.60
2763;DHT22;1389;51.490;7.338;2023-03-05T13:05:48;6.20;84.80
2763;DHT22;1389;51.490;7.338;2023-03-05T13:08:35;6.20;84.60
2763;DHT22;1389;51.490;7.338;2023-03-05T13:11:15;6.10;84.60
2763;DHT22;1389;51.490;7.338;2023-03-05T13:13:46;6.10;85.20
2763;DHT22;1389;51.490;7.338;2023-03-05T13:16:59;6.10;85.40
2763;DHT22;1389;51.490;7.338;2023-03-05T13:19:15;6.20;85.60
2763;DHT22;1389;51.490;7.338;2023-03-05T13:21:45;6.20;85.60
2763;DHT22;1389;51.490;7.338;2023-03-05T13:24:16;6.30;85.20
2763;DHT22;1389;51.490;7.338;2023-03-05T13:26:48;6.30;84.70
2763;DHT22;1389;51.490;7.338;2023-03-05T13:29:17;6.30;84.80
2763;DHT22;1389;51.490;7.338;2023-03-05T13:31:48;6.30;84.80
2763;DHT22;1389;51.490;7.338;2023-03-05T13:34:20;6.40;85.00
2763;DHT22;1389;51.490;7.338;2023-03-05T13:39:31;6.50;85.20
2763;DHT22;1389;51.490;7.338;2023-03-05T13:42:06;6.60;85.40
2763;DHT22;1389;51.490;7.338;2023-03-05T13:44:43;6.70;85.30
2763;DHT22;1389;51.490;7.338;2023-03-05T13:47:20;6.80;85.30
2763;DHT22;1389;51.490;7.338;2023-03-05T13:50:00;6.80;85.00
2763;DHT22;1389;51.490;7.338;2023-03-05T13:52:32;6.90;84.70
2763;DHT22;1389;51.490;7.338;2023-03-05T13:55:13;6.90;84.30
2763;DHT22;1389;51.490;7.338;2023-03-05T13:57:43;6.80;84.10
2763;DHT22;1389;51.490;7.338;2023-03-05T14:00:33;6.80;83.90
2763;DHT22;1389;51.490;7.338;2023-03-05T14:03:08;6.80;83.40
2763;DHT22;1389;51.490;7.338;2023-03-05T14:05:43;6.70;83.50
2763;DHT22;1389;51.490;7.338;2023-03-05T14:08:19;6.70;83.30
2763;DHT22;1389;51.490;7.338;2023-03-05T14:10:59;6.70;83.50
2763;DHT22;1389;51.490;7.338;2023-03-05T14:13:41;6.70;83.90
2763;DHT22;1389;51.490;7.338;2023-03-05T14:16:24;6.80;83.90
2763;DHT22;1389;51.490;7.338;2023-03-05T14:18:56;6.80;84.20
2763;DHT22;1389;51.490;7.338;2023-03-05T14:21:45;6.80;84.20
2763;DHT22;1389;51.490;7.338;2023-03-05T14:24:23;6.80;84.20
2763;DHT22;1389;51.490;7.338;2023-03-05T14:27:02;6.80;83.10
2763;DHT22;1389;51.490;7.338;2023-03-05T14:29:35;6.80;83.30
2763;DHT22;1389;51.490;7.338;2023-03-05T14:32:15;6.80;83.70
2763;DHT22;1389;51.490;7.338;2023-03-05T14:34:50;6.80;83.70
2763;DHT22;1389;51.490;7.338;2023-03-05T14:37:34;6.80;83.20
2763;DHT22;1389;51.490;7.338;2023-03-05T14:43:02;6.90;82.70
2763;DHT22;1389;51.490;7.338;2023-03-05T14:45:39;7.00;82.90
2763;DHT22;1389;51.490;7.338;2023-03-05T14:48:12;7.00;82.80
2763;DHT22;1389;51.490;7.338;2023-03-05T14:50:47;7.10;82.60
2763;DHT22;1389;51.490;7.338;2023-03-05T14:53:21;7.10;80.60
2763;DHT22;1389;51.490;7.338;2023-03-05T14:55:51;7.00;78.90
2763;DHT22;1389;51.490;7.338;2023-03-05T14:58:24;7.00;77.90
2763;DHT22;1389;51.490;7.338;2023-03-05T15:00:52;6.90;77.90
2763;DHT22;1389;51.490;7.338;2023-03-05T15:03:20;6.90;77.10
2763;DHT22;1389;51.490;7.338;2023-03-05T15:05:52;6.80;76.20
2763;DHT22;1389;51.490;7.338;2023-03-05T15:08:30;6.80;76.10
2763;DHT22;1389;51.490;7.338;2023-03-05T15:11:05;6.70;76.50
2763;DHT22;1389;51.490;7.338;2023-03-05T15:13:40;6.70;76.40
2763;DHT22;1389;51.490;7.338;2023-03-05T15:16:11;6.70;77.10
2763;DHT22;1389;51.490;7.338;2023-03-05T15:18:41;6.70;77.50
2763;DHT22;1389;51.490;7.338;2023-03-05T15:21:14;6.60;77.80
2763;DHT22;1389;51.490;7.338;2023-03-05T15:23:53;6.60;77.70
2763;DHT22;1389;51.490;7.338;2023-03-05T15:26:20;6.70;77.90
2763;DHT22;1389;51.490;7.338;2023-03-05T15:28:47;6.70;77.70
2763;DHT22;1389;51.490;7.338;2023-03-05T15:31:19;6.70;78.20
2763;DHT22;1389;51.490;7.338;2023-03-05T15:33:50;6.60;77.50
2763;DHT22;1389;51.490;7.338;2023-03-05T15:36:20;6.60;78.10
2763;DHT22;1389;51.490;7.338;2023-03-05T15:38:49;6.60;78.10
2763;DHT22;1389;51.490;7.338;2023-03-05T15:41:34;6.60;78.20
2763;DHT22;1389;51.490;7.338;2023-03-05T15:44:05;6.60;78.40
2763;DHT22;1389;51.490;7.338;2023-03-05T15:46:36;6.70;78.60
2763;DHT22;1389;51.490;7.338;2023-03-05T15:49:05;6.70;77.40
2763;DHT22;1389;51.490;7.338;2023-03-05T15:51:32;6.70;77.70
2763;DHT22;1389;51.490;7.338;2023-03-05T15:54:10;6.70;77.80
2763;DHT22;1389;51.490;7.338;2023-03-05T15:56:42;6.70;77.80
2763;DHT22;1389;51.490;7.338;2023-03-05T15:59:13;6.70;78.10
2763;DHT22;1389;51.490;7.338;2023-03-05T16:01:53;6.70;77.70
2763;DHT22;1389;51.490;7.338;2023-03-05T16:04:23;6.70;77.00
2763;DHT22;1389;51.490;7.338;2023-03-05T16:06:51;6.70;77.00
2763;DHT22;1389;51.490;7.338;2023-03-05T16:09:21;6.70;77.50
2763;DHT22;1389;51.490;7.338;2023-03-05T16:11:48;6.70;77.20
2763;DHT22;1389;51.490;7.338;2023-03-05T16:14:21;6.70;77.80
2763;DHT22;1389;51.490;7.338;2023-03-05T16:16:49;6.70;77.20
2763;DHT22;1389;51.490;7.338;2023-03-05T16:19:17;6.70;77.10
2763;DHT22;1389;51.490;7.338;2023-03-05T16:21:48;6.70;77.40
2763;DHT22;1389;51.490;7.338;2023-03-05T16:24:24;6.60;78.10
2763;DHT22;1389;51.490;7.338;2023-03-05T16:26:57;6.60;77.70
2763;DHT22;1389;51.490;7.338;2023-03-05T16:29:35;6.60;77.90
2763;DHT22;1389;51.490;7.338;2023-03-05T16:32:11;6.60;78.00
2763;DHT22;1389;51.490;7.338;2023-03-05T16:35:02;6.50;78.60
2763;DHT22;1389;51.490;7.338;2023-03-05T16:37:40;6.50;78.90
2763;DHT22;1389;51.490;7.338;2023-03-05T16:40:14;6.50;78.90
2763;DHT22;1389;51.490;7.338;2023-03-05T16:42:48;6.50;78.90
2763;DHT22;1389;51.490;7.338;2023-03-05T16:45:19;6.50;79.10
2763;DHT22;1389;51.490;7.338;2023-03-05T16:47:50;6.50;79.10
2763;DHT22;1389;51.490;7.338;2023-03-05T16:50:16;6.50;79.50
2763;DHT22;1389;51.490;7.338;2023-03-05T16:52:48;6.50;79.80
2763;DHT22;1389;51.490;7.338;2023-03-05T16:55:19;6.40;80.30
2763;DHT22;1389;51.490;7.338;2023-03-05T16:57:53;6.30;79.90
2763;DHT22;1389;51.490;7.338;2023-03-05T17:00:43;6.30;80.30
2763;DHT22;1389;51.490;7.338;2023-03-05T17:03:17;6.10;80.80
2763;DHT22;1389;51.490;7.338;2023-03-05T17:05:51;6.10;81.60
2763;DHT22;1389;51.490;7.338;2023-03-05T17:08:28;6.00;82.10
2763;DHT22;1389;51.490;7.338;2023-03-05T17:11:03;6.00;82.50
2763;DHT22;1389;51.490;7.338;2023-03-05T17:13:41;5.90;82.90
2763;DHT22;1389;51.490;7.338;2023-03-05T17:16:11;5.80;83.50
2763;DHT22;1389;51.490;7.338;2023-03-05T17:18:50;5.80;84.10
2763;DHT22;1389;51.490;7.338;2023-03-05T17:21:23;5.80;84.10
2763;DHT22;1389;51.490;7.338;2023-03-05T17:23:51;5.70;84.90
2763;DHT22;1389;51.490;7.338;2023-03-05T17:26:19;5.70;84.90
2763;DHT22;1389;51.490;7.338;2023-03-05T17:28:46;5.70;85.10
2763;DHT22;1389;51.490;7.338;2023-03-05T17:31:12;5.70;84.90
2763;DHT22;1389;51.490;7.338;2023-03-05T17:33:40;5.70;85.50
2763;DHT22;1389;51.490;7.338;2023-03-05T17:36:13;5.60;85.50
2763;DHT22;1389;51.490;7.338;2023-03-05T17:38:39;5.60;86.50
2763;DHT22;1389;51.490;7.338;2023-03-05T17:41:07;5.50;87.20
2763;DHT22;1389;51.490;7.338;2023-03-05T17:43:33;5.50;87.70
2763;DHT22;1389;51.490;7.338;2023-03-05T17:46:01;5.50;87.90
2763;DHT22;1389;51.490;7.338;2023-03-05T17:48:27;5.40;88.10
2763;DHT22;1389;51.490;7.338;2023-03-05T17:50:54;5.40;88.40
2763;DHT22;1389;51.490;7.338;2023-03-05T17:53:21;5.30;89.00
2763;DHT22;1389;51.490;7.338;2023-03-05T17:55:48;5.30;89.60
2763;DHT22;1389;51.490;7.338;2023-03-05T17:58:15;5.30;89.90
2763;DHT22;1389;51.490;7.338;2023-03-05T18:00:46;5.20;90.30
2763;DHT22;1389;51.490;7.338;2023-03-05T18:03:12;5.20;90.60
2763;DHT22;1389;51.490;7.338;2023-03-05T18:05:40;5.20;90.90
2763;DHT22;1389;51.490;7.338;2023-03-05T18:08:11;5.20;91.00
2763;DHT22;1389;51.490;7.338;2023-03-05T18:10:41;5.20;91.00
2763;DHT22;1389;51.490;7.338;2023-03-05T18:13:18;5.20;91.30
2763;DHT22;1389;51.490;7.338;2023-03-05T18:16:01;5.20;91.00
2763;DHT22;1389;51.490;7.338;2023-03-05T18:18:35;5.10;91.30
2763;DHT22;1389;51.490;7.338;2023-03-05T18:21:06;5.10;91.60
2763;DHT22;1389;51.490;7.338;2023-03-05T18:23:33;5.10;91.70
2763;DHT22;1389;51.490;7.338;2023-03-05T18:25:59;5.20;91.60
2763;DHT22;1389;51.490;7.338;2023-03-05T18:28:25;5.20;91.10
2763;DHT22;1389;51.490;7.338;2023-03-05T18:30:52;5.20;90.50
2763;DHT22;1389;51.490;7.338;2023-03-05T18:33:23;5.30;90.20
2763;DHT22;1389;51.490;7.338;2023-03-05T18:35:51;5.30;89.30
2763;DHT22;1389;51.490;7.338;2023-03-05T18:38:22;5.30;89.30
2763;DHT22;1389;51.490;7.338;2023-03-05T18:40:49;5.30;89.30
2763;DHT22;1389;51.490;7.338;2023-03-05T18:43:17;5.30;89.30
2763;DHT22;1389;51.490;7.338;2023-03-05T18:45:47;5.40;89.60